Time;durP1;ratioP1;P1;durP2;ratioP2;P2;SDS_P1;SDS_P2;PMS_P1;PMS_P2;Temp;Humidity;BMP_temperature;BMP_pressure;BME280_temperature;BME280_humidity;BME280_pressure;Samples;Min_cycle;Max_cycle;Signal;HPM_P1;HPM_P2
2022/01/03 00:01:25;;;;;;;4.95;3.20;;;9.90;68.10;;;9.03;51.40;94754.34;5078639;28;20206;-86
2022/01/03 00:03:54;;;;;;;4.97;3.00;;;9.80;68.00;;;8.97;51.58;94751.47;5078611;28;20203;-86
2022/01/03 00:06:21;;;;;;;4.25;3.08;;;9.80;68.00;;;8.93;51.87;94760.66;5061749;28;20215;-85
2022/01/03 00:08:48;;;;;;;5.07;3.50;;;9.70;68.00;;;8.89;51.84;94761.25;5077590;28;20199;-85
2022/01/03 00:11:20;;;;;;;4.38;3.38;;;9.70;68.10;;;8.87;51.93;94752.78;5078252;28;20214;-85
2022/01/03 00:13:50;;;;;;;4.68;3.08;;;9.70;68.40;;;8.84;51.99;94740.88;5061830;28;20202;-86
2022/01/03 00:16:17;;;;;;;5.47;3.63;;;9.60;68.40;;;8.78;51.91;94741.63;5061751;28;20256;-85
2022/01/03 00:18:44;;;;;;;4.78;3.28;;;9.60;68.40;;;8.80;51.74;94750.06;5095135;28;20783;-85
2022/01/03 00:21:16;;;;;;;4.47;3.47;;;9.60;68.50;;;8.77;52.22;94750.44;5094955;28;20228;-85
2022/01/03 00:23:53;;;;;;;5.15;3.70;;;9.60;68.70;;;8.72;52.35;94737.13;5095112;28;20206;-85
2022/01/03 00:26:27;;;;;;;6.70;4.32;;;9.50;69.00;;;8.75;52.69;94734.13;5094131;28;20305;-86
2022/01/03 00:28:58;;;;;;;4.40;3.40;;;9.50;69.10;;;8.76;52.53;94731.34;5078582;28;20196;-86
2022/01/03 00:31:40;;;;;;;4.93;3.63;;;9.50;68.90;;;8.77;52.44;94734.75;5077818;28;20222;-86
2022/01/03 00:34:12;;;;;;;5.68;4.05;;;9.50;69.30;;;8.74;52.42;94724.66;5061369;28;20206;-85
2022/01/03 00:36:39;;;;;;;5.28;3.88;;;9.40;69.00;;;8.76;52.56;94723.50;5078026;28;20191;-85
2022/01/03 00:39:09;;;;;;;5.80;3.10;;;9.50;69.00;;;8.74;52.56;94732.50;5090751;28;20227;-86
2022/01/03 00:41:40;;;;;;;4.18;2.92;;;9.40;69.10;;;8.74;53.24;94743.78;5094407;28;20617;-84
2022/01/03 00:44:09;;;;;;;4.38;3.33;;;9.40;69.20;;;8.81;53.13;94743.84;5077808;28;20609;-85
2022/01/03 00:46:36;;;;;;;4.55;3.10;;;9.40;69.40;;;8.82;53.06;94740.25;5094683;28;20201;-85
2022/01/03 00:49:05;;;;;;;3.22;2.90;;;9.50;69.40;;;8.91;52.88;94739.13;5094615;28;20209;-85
2022/01/03 00:51:32;;;;;;;3.88;3.17;;;9.50;69.60;;;8.94;53.57;94733.53;5077489;28;20260;-84
2022/01/03 00:54:00;;;;;;;3.63;2.90;;;9.50;69.80;;;8.94;53.47;94730.91;5077630;28;20608;-85
2022/01/03 00:56:37;;;;;;;4.60;2.80;;;9.60;69.90;;;9.01;53.60;94744.06;5076903;28;20233;-85
2022/01/03 00:59:12;;;;;;;5.30;3.17;;;9.60;70.20;;;9.03;53.48;94731.59;5057339;28;20237;-86
2022/01/03 01:01:52;;;;;;;4.75;3.28;;;9.60;70.00;;;9.05;53.91;94729.59;5074155;28;20195;-86
2022/01/03 01:04:23;;;;;;;5.32;2.95;;;9.70;70.30;;;9.11;53.95;94743.75;5073884;28;20692;-86
2022/01/03 01:06:58;;;;;;;3.42;2.72;;;9.70;70.50;;;9.16;54.46;94732.75;5068288;28;20285;-85
2022/01/03 01:09:28;;;;;;;4.68;3.28;;;9.70;70.30;;;9.22;55.37;94724.13;5077220;28;20260;-86
2022/01/03 01:12:00;;;;;;;6.38;3.00;;;9.70;71.00;;;9.32;54.50;94724.63;5077584;28;20202;-84
2022/01/03 01:14:35;;;;;;;5.22;3.15;;;9.80;70.90;;;9.39;54.48;94724.69;5079044;28;20225;-86
2022/01/03 01:17:04;;;;;;;4.32;2.83;;;9.80;70.90;;;9.41;54.97;94713.03;5060337;28;20289;-85
2022/01/03 01:19:32;;;;;;;5.95;2.65;;;9.90;71.20;;;9.49;54.56;94712.06;5060802;28;20275;-86
2022/01/03 01:21:59;;;;;;;5.20;3.00;;;10.10;69.90;;;9.56;54.74;94715.53;5076359;28;20198;-85
2022/01/03 01:24:33;;;;;;;5.72;3.10;;;10.00;69.80;;;9.61;55.02;94710.53;5060607;28;20205;-86
2022/01/03 01:29:50;;;;;;;4.78;2.80;;;10.20;69.90;;;9.76;54.38;94731.41;5095686;28;20638;-85
2022/01/03 01:32:19;;;;;;;5.05;2.80;;;10.20;69.70;;;9.80;54.47;94728.41;5059736;28;20252;-86
2022/01/03 01:34:50;;;;;;;3.60;2.80;;;10.30;70.70;;;9.81;54.15;94717.72;5076644;28;20232;-86
2022/01/03 01:37:22;;;;;;;3.75;2.70;;;10.30;69.50;;;9.80;54.01;94710.06;5076886;28;20302;-85
2022/01/03 01:39:52;;;;;;;4.70;2.72;;;10.30;69.40;;;9.73;54.00;94702.97;5056377;28;20272;-85
2022/01/03 01:42:19;;;;;;;4.05;2.80;;;10.40;69.30;;;9.69;53.80;94704.38;5073288;28;20202;-86
2022/01/03 01:44:53;;;;;;;3.88;2.92;;;10.30;69.00;;;9.63;53.64;94705.13;5073626;28;20251;-85
2022/01/03 01:47:27;;;;;;;3.85;2.90;;;10.30;68.90;;;9.54;53.77;94712.28;5073698;28;20653;-85
2022/01/03 01:49:56;;;;;;;4.15;2.90;;;10.30;68.90;;;9.47;53.74;94708.81;5092245;28;20217;-85
2022/01/03 01:52:26;;;;;;;3.05;2.53;;;10.20;68.80;;;9.39;53.60;94706.38;5092993;28;20224;-86
2022/01/03 01:55:07;;;;;;;4.15;2.58;;;10.10;68.60;;;9.31;53.64;94714.34;5077484;28;20612;-85
2022/01/03 01:58:04;;;;;;;4.07;2.60;;;10.10;68.80;;;9.21;53.76;94719.91;5093846;28;20226;-86
2022/01/03 02:00:45;;;;;;;4.10;2.60;;;10.00;68.90;;;9.12;53.67;94709.56;5077231;28;20238;-85
2022/01/03 02:03:22;;;;;;;4.30;2.42;;;9.90;70.10;;;9.05;54.03;94702.66;5057852;28;20294;-86
2022/01/03 02:06:40;;;;;;;3.25;2.42;;;9.90;70.00;;;8.97;54.08;94695.72;5057032;28;20247;-85
2022/01/03 02:09:20;;;;;;;4.60;2.95;;;9.80;70.20;;;8.90;54.07;94698.28;4953710;28;20201;-84
2022/01/03 02:11:57;;;;;;;4.35;2.47;;;9.80;70.20;;;8.87;54.20;94682.94;5069888;28;20205;-85
2022/01/03 02:14:36;;;;;;;4.07;2.90;;;9.70;70.50;;;8.82;54.24;94674.84;5062308;28;20671;-86
2022/01/03 02:17:07;;;;;;;4.57;2.75;;;9.70;70.20;;;8.79;54.13;94685.72;5076254;28;20198;-86
2022/01/03 02:19:38;;;;;;;2.67;2.17;;;9.60;70.20;;;8.76;54.32;94699.13;5093879;27;20318;-84
2022/01/03 02:22:10;;;;;;;3.70;2.53;;;9.50;70.30;;;8.69;53.99;94693.84;5075901;28;20205;-85
2022/01/03 02:24:47;;;;;;;6.03;3.05;;;9.50;70.20;;;8.64;54.18;94683.13;5077295;28;20214;-85
2022/01/03 02:27:14;;;;;;;5.20;2.60;;;9.50;70.30;;;8.63;54.17;94678.91;5076089;28;20206;-85
2022/01/03 02:29:43;;;;;;;21.13;9.25;;;9.40;70.30;;;8.56;54.47;94678.03;5059377;28;20215;-85
2022/01/03 02:32:17;;;;;;;22.42;10.15;;;9.40;70.60;;;8.56;54.20;94685.88;5068779;28;20221;-85
2022/01/03 02:34:44;;;;;;;11.75;6.22;;;9.40;70.50;;;8.54;54.32;94685.25;5097482;28;20211;-85
2022/01/03 02:37:12;;;;;;;10.13;4.88;;;9.30;70.60;;;8.51;54.39;94678.56;5075642;28;20202;-85
2022/01/03 02:39:40;;;;;;;5.80;3.63;;;9.30;70.70;;;8.53;54.47;94670.53;5077734;28;20263;-84
2022/01/03 02:42:07;;;;;;;4.75;3.20;;;9.20;70.70;;;8.55;54.65;94671.19;5057993;28;20202;-84
2022/01/03 02:44:35;;;;;;;6.35;3.40;;;9.20;70.70;;;8.52;54.65;94655.84;5074627;28;20210;-85
2022/01/03 02:47:02;;;;;;;4.50;2.80;;;9.30;71.00;;;8.51;54.70;94662.06;5075089;28;20640;-85
2022/01/03 02:49:30;;;;;;;5.03;2.55;;;9.20;70.90;;;8.49;54.90;94662.25;5091545;28;20219;-85
2022/01/03 02:51:57;;;;;;;3.85;2.72;;;9.20;70.90;;;8.42;54.72;94650.91;5080169;28;20195;-85
2022/01/03 02:54:24;;;;;;;4.53;2.80;;;9.20;70.90;;;8.44;54.57;94669.81;5074196;28;20194;-84
2022/01/03 02:56:52;;;;;;;3.75;2.88;;;9.10;70.90;;;8.43;54.73;94666.38;5091416;28;20194;-85
2022/01/03 02:59:19;;;;;;;3.33;2.67;;;9.20;71.00;;;8.39;54.88;94649.47;5093977;28;20227;-84
2022/01/03 03:01:48;;;;;;;5.00;2.92;;;9.10;70.90;;;8.37;55.11;94637.56;5099670;28;20210;-86
2022/01/03 03:04:19;;;;;;;4.93;2.63;;;9.10;71.20;;;8.38;54.96;94650.44;5067525;28;20195;-85
2022/01/03 03:06:46;;;;;;;4.63;2.90;;;9.10;71.10;;;8.38;56.10;94632.16;5074549;28;20664;-85
2022/01/03 03:09:14;;;;;;;5.22;2.35;;;9.10;71.80;;;8.45;56.06;94619.19;5108236;28;20191;-85
2022/01/03 03:11:42;;;;;;;3.92;2.60;;;9.10;71.90;;;8.59;56.33;94639.25;5081853;28;20187;-85
2022/01/03 03:14:09;;;;;;;4.07;2.47;;;9.20;72.30;;;8.72;56.24;94624.69;5083810;28;20198;-86
2022/01/03 03:16:37;;;;;;;3.75;2.38;;;9.20;72.30;;;8.85;56.38;94618.75;5068519;28;20228;-85
2022/01/03 03:19:04;;;;;;;3.00;2.10;;;9.20;72.30;;;8.96;56.18;94619.06;5090534;28;20221;-85
2022/01/03 03:21:31;;;;;;;2.97;2.10;;;9.30;72.50;;;9.09;56.38;94625.41;5072570;28;20309;-84
2022/01/03 03:23:59;;;;;;;4.07;2.30;;;9.40;72.70;;;9.19;56.33;94632.91;5088732;28;20195;-84
2022/01/03 03:26:27;;;;;;;3.97;2.33;;;9.50;72.80;;;9.38;56.43;94624.38;5072790;28;20344;-84
2022/01/03 03:28:54;;;;;;;3.85;2.53;;;9.60;72.90;;;9.52;56.77;94624.47;5089340;28;20278;-85
2022/01/03 03:31:23;;;;;;;3.28;2.30;;;9.80;73.10;;;9.69;56.28;94622.38;5089308;28;20236;-86
2022/01/03 03:33:50;;;;;;;2.78;2.30;;;9.90;73.00;;;9.83;56.72;94616.19;5088916;28;20191;-85
2022/01/03 03:36:18;;;;;;;5.13;2.55;;;10.00;71.80;;;10.02;56.28;94619.91;5089330;28;20334;-83
2022/01/03 03:38:45;;;;;;;3.20;2.20;;;10.20;72.00;;;10.21;56.76;94618.34;5072805;28;20267;-84
2022/01/03 03:41:16;;;;;;;4.78;2.80;;;10.30;72.00;;;10.39;56.18;94609.19;5071958;28;20224;-85
2022/01/03 03:43:53;;;;;;;4.20;2.20;;;10.50;71.90;;;10.56;55.76;94599.94;5089123;28;20190;-85
2022/01/03 03:46:22;;;;;;;3.17;2.40;;;10.70;71.70;;;10.66;55.30;94602.16;5092049;28;20216;-84
2022/01/03 03:48:50;;;;;;;5.80;2.50;;;10.80;71.50;;;10.79;55.11;94597.94;5093352;28;20297;-85
2022/01/03 03:51:21;;;;;;;4.80;2.33;;;10.90;71.30;;;10.91;54.68;94601.56;5093416;28;20246;-85
2022/01/03 03:53:50;;;;;;;5.38;2.40;;;11.10;71.10;;;10.99;54.78;94598.75;5092566;28;20202;-85
2022/01/03 03:56:20;;;;;;;2.55;2.20;;;11.20;70.90;;;11.02;54.28;94608.84;5076142;28;20256;-84
2022/01/03 03:58:48;;;;;;;4.18;2.13;;;11.30;70.70;;;11.10;54.41;94584.22;5092859;28;20683;-85
2022/01/03 04:01:15;;;;;;;5.28;2.50;;;11.40;70.70;;;11.15;54.29;94596.72;5095159;28;20226;-86
2022/01/03 04:03:47;;;;;;;4.03;2.58;;;11.50;70.50;;;11.23;54.14;94593.91;5073982;28;20211;-86
2022/01/03 04:06:17;;;;;;;5.15;2.60;;;11.60;70.30;;;11.25;53.65;94593.69;5056822;28;20227;-85
2022/01/03 04:08:47;;;;;;;3.17;2.50;;;11.60;70.10;;;11.31;53.75;94585.81;5073206;28;20202;-85
2022/01/03 04:11:14;;;;;;;3.05;2.30;;;11.60;70.00;;;11.35;53.40;94591.44;5056238;28;20214;-85
2022/01/03 04:13:42;;;;;;;4.72;2.30;;;11.70;70.00;;;11.41;53.67;94595.09;5087372;28;20286;-85
2022/01/03 04:16:09;;;;;;;3.42;2.15;;;11.80;69.80;;;11.43;53.46;94599.13;5074683;28;20206;-85
2022/01/03 04:18:37;;;;;;;5.18;2.20;;;11.80;69.80;;;11.48;53.38;94582.75;5074427;28;20316;-86
2022/01/03 04:21:04;;;;;;;4.45;2.53;;;11.80;70.60;;;11.52;53.09;94594.44;5074017;28;20271;-86
2022/01/03 04:23:31;;;;;;;3.88;2.40;;;11.90;69.60;;;11.58;52.79;94598.09;5058298;28;20205;-85
2022/01/03 04:25:59;;;;;;;5.50;2.53;;;11.90;69.60;;;11.64;53.04;94592.00;5074458;28;20226;-85
2022/01/03 04:28:26;;;;;;;3.80;2.45;;;12.00;69.60;;;11.63;53.07;94577.25;5059190;28;20711;-86
2022/01/03 04:30:54;;;;;;;2.75;2.10;;;12.00;69.50;;;11.69;52.81;94592.19;5076721;28;20229;-86
2022/01/03 04:33:21;;;;;;;2.58;2.17;;;12.10;69.50;;;11.72;52.75;94580.47;5061045;28;20289;-86
2022/01/03 04:35:50;;;;;;;5.22;2.22;;;12.20;69.30;;;11.75;52.72;94582.69;5094918;28;20786;-86
2022/01/03 04:38:18;;;;;;;4.53;2.47;;;12.20;70.00;;;11.78;52.36;94585.72;5094606;28;20214;-85
2022/01/03 04:40:46;;;;;;;4.40;2.40;;;12.20;69.10;;;11.80;52.15;94591.56;5061105;28;20711;-86
2022/01/03 04:43:13;;;;;;;3.42;2.30;;;12.20;68.90;;;11.82;52.01;94584.28;5077606;28;20233;-86
2022/01/03 04:45:40;;;;;;;2.90;1.98;;;12.30;68.90;;;11.85;52.26;94591.75;5093960;28;20250;-86
2022/01/03 04:48:07;;;;;;;4.05;2.20;;;12.20;68.80;;;11.85;52.22;94602.25;5077445;28;20420;-86
2022/01/03 04:50:35;;;;;;;3.83;2.55;;;12.30;68.80;;;11.90;51.96;94582.44;5094829;28;20222;-86
2022/01/03 04:53:02;;;;;;;5.10;2.13;;;12.30;69.60;;;11.84;51.90;94581.47;5077504;28;20694;-85
2022/01/03 04:55:29;;;;;;;4.95;2.45;;;12.30;68.60;;;11.93;51.79;94569.69;5094352;28;20309;-85
2022/01/03 04:57:56;;;;;;;3.67;2.17;;;12.30;68.40;;;11.93;51.66;94571.50;5059193;28;20728;-85
2022/01/03 05:00:24;;;;;;;3.42;2.20;;;12.50;68.60;;;11.95;51.60;94572.91;5077715;28;20226;-85
2022/01/03 05:02:58;;;;;;;4.07;2.20;;;12.40;68.50;;;11.97;51.42;94576.19;5062367;28;20210;-85
2022/01/03 05:05:25;;;;;;;3.15;2.20;;;12.50;68.50;;;12.00;51.54;94588.09;5060799;28;20226;-86
2022/01/03 05:07:53;;;;;;;3.38;2.35;;;12.40;68.50;;;12.01;51.70;94587.88;5060873;28;20717;-85
2022/01/03 05:10:21;;;;;;;4.05;2.60;;;12.50;68.50;;;12.05;51.46;94579.56;5093875;28;20218;-85
2022/01/03 05:12:49;;;;;;;4.70;2.40;;;12.50;68.40;;;12.07;51.48;94585.41;5077091;28;20194;-85
2022/01/03 05:15:17;;;;;;;4.18;2.40;;;12.50;68.40;;;12.04;50.85;94581.41;5077022;28;20221;-85
2022/01/03 05:17:44;;;;;;;5.47;3.17;;;12.50;68.10;;;12.06;51.28;94584.63;5093225;28;20206;-86
2022/01/03 05:20:12;;;;;;;5.78;3.00;;;12.60;68.20;;;12.09;51.20;94588.66;5093416;28;20683;-84
2022/01/03 05:22:40;;;;;;;4.47;1.90;;;12.50;68.20;;;12.07;51.35;94598.56;5093842;28;20225;-85
2022/01/03 05:25:10;;;;;;;5.03;2.60;;;12.50;68.20;;;12.05;50.77;94590.06;5093923;28;20532;-85
2022/01/03 05:27:40;;;;;;;2.92;2.13;;;12.50;68.00;;;12.10;51.04;94622.63;5089579;28;20667;-85
2022/01/03 05:30:08;;;;;;;5.57;2.60;;;12.60;68.10;;;12.09;51.71;94649.13;5089475;28;20272;-86
2022/01/03 05:32:36;;;;;;;4.47;2.53;;;12.50;68.30;;;12.03;52.35;94645.50;5090064;28;20253;-86
2022/01/03 05:35:05;;;;;;;2.63;1.85;;;12.50;68.70;;;11.87;53.50;94678.25;5084922;28;20309;-85
2022/01/03 05:37:32;;;;;;;4.15;2.22;;;12.50;69.10;;;11.65;54.15;94714.47;5076657;28;20244;-85
2022/01/03 05:40:04;;;;;;;4.47;1.90;;;12.40;69.70;;;11.30;56.49;94714.66;5076419;28;20252;-85
2022/01/03 05:42:33;;;;;;;2.50;1.80;;;12.30;71.00;;;10.98;57.27;94730.16;5076250;28;20190;-84
2022/01/03 05:45:00;;;;;;;1.40;1.30;;;12.10;71.00;;;10.68;59.31;94730.47;5075536;28;20226;-83
2022/01/03 05:47:28;;;;;;;1.45;1.30;;;12.00;71.80;;;10.37;59.14;94716.03;5059363;28;20676;-84
2022/01/03 05:49:56;;;;;;;1.30;1.10;;;11.80;71.80;;;10.11;60.28;94720.13;5059134;28;20242;-83
2022/01/03 05:52:24;;;;;;;1.77;1.00;;;11.40;72.10;;;9.86;60.60;94725.84;5076539;28;20230;-84
2022/01/03 05:54:52;;;;;;;1.13;0.90;;;11.30;72.50;;;9.68;60.88;94723.69;5075906;28;20659;-84
2022/01/03 05:57:20;;;;;;;1.13;0.98;;;11.00;72.60;;;9.48;61.59;94715.69;5075792;28;20205;-84
2022/01/03 05:59:48;;;;;;;1.50;0.88;;;10.80;72.90;;;9.38;61.45;94721.25;5076121;28;20230;-85
2022/01/03 06:02:15;;;;;;;0.90;0.90;;;10.70;73.00;;;9.26;62.04;94734.03;5075782;28;20278;-85
2022/01/03 06:04:55;;;;;;;1.13;0.77;;;10.50;73.30;;;9.15;62.74;94712.78;5059439;28;20706;-84
2022/01/03 06:07:23;;;;;;;1.98;1.23;;;10.40;74.00;;;9.02;63.27;94714.31;5074844;28;20197;-85
2022/01/03 06:09:50;;;;;;;1.02;0.93;;;10.20;74.80;;;8.98;64.49;94720.88;5092346;28;20310;-83
2022/01/03 06:12:19;;;;;;;1.77;0.90;;;10.10;74.60;;;8.83;64.34;94714.91;5076365;28;20228;-84
2022/01/03 06:14:49;;;;;;;2.70;1.10;;;9.90;76.20;;;8.83;64.33;94726.16;5092893;28;20217;-84
2022/01/03 06:17:17;;;;;;;1.35;0.82;;;9.80;76.30;;;8.80;63.69;94731.75;5092092;28;20260;-84
2022/01/03 06:19:48;;;;;;;1.40;1.30;;;9.80;76.30;;;8.77;63.75;94755.69;5076014;28;20241;-84
2022/01/03 06:22:17;;;;;;;0.80;0.80;;;9.70;76.40;;;8.69;64.21;94740.09;5075592;28;20198;-84
2022/01/03 06:24:50;;;;;;;1.70;0.98;;;9.70;76.60;;;8.64;65.08;94761.56;5072053;28;20240;-82
2022/01/03 06:27:18;;;;;;;1.05;0.80;;;9.60;76.90;;;8.65;66.03;94748.31;5075228;28;20722;-83
2022/01/03 06:29:46;;;;;;;1.05;0.70;;;9.60;77.50;;;8.63;65.57;94752.13;5075237;28;20250;-82
2022/01/03 06:32:13;;;;;;;1.00;1.00;;;9.60;77.50;;;8.60;66.71;94742.81;5091165;28;20202;-82
2022/01/03 06:34:41;;;;;;;0.95;0.95;;;9.60;78.10;;;8.60;67.13;94742.00;5108285;28;20222;-82
2022/01/03 06:37:09;;;;;;;1.00;1.00;;;9.50;78.50;;;8.58;67.24;94739.59;5083211;28;20199;-84
2022/01/03 06:39:47;;;;;;;2.22;1.27;;;9.50;78.70;;;8.57;67.40;94726.69;5087166;28;20234;-83
2022/01/03 06:42:14;;;;;;;1.10;1.00;;;9.40;79.00;;;8.58;66.90;94744.81;5085361;28;20208;-83
2022/01/03 06:44:43;;;;;;;1.67;1.33;;;9.40;78.70;;;8.55;67.45;94737.31;5095248;28;20213;-82
2022/01/03 06:47:10;;;;;;;0.80;0.80;;;9.40;79.10;;;8.57;67.57;94744.97;5079729;28;20206;-82
2022/01/03 06:49:38;;;;;;;1.17;1.05;;;9.40;79.10;;;8.58;67.45;94763.13;5064655;28;20207;-83
2022/01/03 06:52:05;;;;;;;3.45;1.10;;;9.40;79.10;;;8.55;67.87;94737.31;5082643;28;20585;-84
2022/01/03 06:54:33;;;;;;;1.00;1.00;;;9.50;80.50;;;8.54;67.79;94745.38;5089831;28;20242;-83
2022/01/03 06:57:04;;;;;;;0.90;0.90;;;9.40;79.40;;;8.55;67.39;94737.31;5069711;28;20582;-83
2022/01/03 06:59:34;;;;;;;0.80;0.80;;;9.40;79.20;;;8.49;67.22;94717.16;5075921;28;20454;-84
2022/01/03 07:02:04;;;;;;;1.00;1.00;;;9.50;79.50;;;8.59;66.86;94740.38;5080055;28;20197;-84
2022/01/03 07:04:32;;;;;;;1.33;1.23;;;9.40;80.00;;;8.54;65.86;94733.09;5087685;28;20221;-84
2022/01/03 07:07:04;;;;;;;1.88;1.20;;;9.40;78.90;;;8.62;66.23;94747.88;5057645;28;20195;-85
2022/01/03 07:09:32;;;;;;;1.38;1.20;;;9.40;78.80;;;8.63;66.55;94749.50;5071783;28;20211;-85
2022/01/03 07:11:59;;;;;;;1.95;1.80;;;9.40;78.90;;;8.67;65.94;94749.91;5089063;28;20213;-85
2022/01/03 07:19:59;;;;;;;1.52;1.30;;;9.50;78.90;;;8.72;66.07;94742.34;5077094;28;20238;-85
2022/01/03 07:22:27;;;;;;;2.70;1.88;;;9.50;78.90;;;8.74;65.79;94742.97;5078270;28;20224;-85
2022/01/03 07:24:55;;;;;;;2.17;1.67;;;9.50;78.90;;;8.72;66.88;94737.13;5095836;28;20692;-84
2022/01/03 07:27:22;;;;;;;3.03;1.60;;;9.60;78.90;;;8.68;65.93;94722.78;5060276;28;20195;-85
2022/01/03 07:29:51;;;;;;;1.77;1.33;;;9.60;79.00;;;8.82;66.34;94750.69;5062515;28;20229;-85
2022/01/03 07:32:18;;;;;;;1.13;1.02;;;9.60;79.10;;;8.77;66.55;94747.84;5077223;28;20832;-84
2022/01/03 07:34:45;;;;;;;1.77;1.40;;;9.70;79.40;;;8.85;66.52;94767.81;5077390;28;20285;-84
2022/01/03 07:37:13;;;;;;;1.40;1.02;;;9.60;79.10;;;8.88;66.61;94783.16;5078277;28;20207;-84
2022/01/03 07:39:41;;;;;;;1.60;1.20;;;9.70;79.20;;;8.89;66.41;94767.28;5095462;28;20236;-84
2022/01/03 07:42:08;;;;;;;1.67;1.30;;;9.70;79.20;;;8.92;66.72;94768.72;5079059;28;20198;-84
2022/01/03 07:44:40;;;;;;;1.65;1.55;;;9.70;80.20;;;8.95;66.87;94781.44;5063943;28;20684;-84
2022/01/03 07:47:07;;;;;;;2.28;1.40;;;9.70;79.40;;;8.97;66.01;94759.31;5078762;28;20380;-85
2022/01/03 07:49:35;;;;;;;2.75;1.38;;;9.80;79.20;;;9.04;66.20;94776.88;5078636;28;20227;-84
2022/01/03 07:52:03;;;;;;;1.95;1.25;;;9.80;79.10;;;8.99;66.24;94769.59;5064084;28;20213;-85
2022/01/03 07:54:30;;;;;;;1.70;1.25;;;9.80;79.10;;;9.10;66.66;94786.63;5087343;28;20223;-85
2022/01/03 07:56:59;;;;;;;1.30;1.20;;;9.90;79.20;;;9.13;66.26;94765.31;5077762;28;20555;-86
2022/01/03 07:59:26;;;;;;;1.30;1.20;;;9.90;79.20;;;9.17;65.65;94771.78;5087912;28;20695;-85
2022/01/03 08:01:53;;;;;;;1.50;1.30;;;10.00;77.80;;;9.26;65.08;94762.00;5098035;28;20190;-84
2022/01/03 08:04:23;;;;;;;2.15;1.20;;;9.90;78.70;;;9.31;65.39;94772.72;5095874;28;20222;-84
2022/01/03 08:06:51;;;;;;;2.00;1.20;;;9.90;78.70;;;9.25;65.52;94761.22;5079893;28;20193;-84
2022/01/03 08:09:18;;;;;;;1.30;1.20;;;10.00;77.70;;;9.42;64.66;94758.31;5079942;28;20577;-85
2022/01/03 08:11:45;;;;;;;1.33;1.23;;;10.00;77.50;;;9.45;64.79;94758.75;5096680;28;20647;-86
2022/01/03 08:14:12;;;;;;;1.17;1.08;;;10.10;77.40;;;9.50;64.59;94762.63;5078860;28;20281;-85
2022/01/03 08:16:39;;;;;;;1.30;1.10;;;10.20;77.50;;;9.55;64.84;94765.50;5094853;28;20492;-84
2022/01/03 08:19:06;;;;;;;1.30;1.20;;;10.20;77.50;;;9.55;65.15;94753.19;5097265;28;20250;-84
2022/01/03 08:21:34;;;;;;;1.30;1.20;;;10.20;77.70;;;9.65;65.16;94746.84;5108705;28;20226;-84
2022/01/03 08:24:01;;;;;;;1.00;0.82;;;10.30;77.70;;;9.73;64.96;94746.69;5077396;28;20293;-85
2022/01/03 08:26:28;;;;;;;1.50;1.10;;;10.30;77.70;;;9.79;64.99;94753.78;5099903;28;20270;-84
2022/01/03 08:28:55;;;;;;;1.73;1.20;;;10.30;77.70;;;9.80;64.76;94758.00;5097438;28;20198;-85
2022/01/03 08:31:23;;;;;;;2.70;1.27;;;10.40;77.70;;;9.91;64.54;94756.69;5097859;28;20218;-85
2022/01/03 08:33:51;;;;;;;1.20;1.10;;;10.40;77.70;;;9.97;64.89;94762.97;5115240;28;20251;-84
2022/01/03 08:36:18;;;;;;;1.95;1.20;;;10.50;77.80;;;10.03;64.17;94759.59;5097768;28;20752;-86
2022/01/03 08:38:46;;;;;;;1.50;1.20;;;10.50;77.50;;;10.03;64.84;94773.50;5098384;28;20193;-85
2022/01/03 08:41:13;;;;;;;1.83;1.30;;;10.50;77.60;;;10.13;64.33;94782.81;5115349;28;20255;-85
2022/01/03 08:43:41;;;;;;;2.45;1.25;;;10.60;77.50;;;10.14;64.25;94773.97;5114719;28;20540;-85
2022/01/03 08:46:08;;;;;;;1.65;1.27;;;10.60;77.40;;;10.03;64.16;94785.78;5080745;28;20222;-85
2022/01/03 08:48:35;;;;;;;1.60;1.08;;;10.70;77.60;;;10.19;64.41;94789.91;5057655;28;20293;-85
2022/01/03 08:51:02;;;;;;;1.77;1.10;;;10.70;77.40;;;10.28;63.60;94795.81;5073365;28;20222;-85
2022/01/03 08:54:55;;;;;;;1.02;0.93;;;10.70;77.10;;;10.28;64.28;94791.41;5130235;27;20568;-83
2022/01/03 08:57:23;;;;;;;2.05;1.08;;;10.80;77.90;;;10.38;63.93;94794.50;5093226;28;20205;-83
2022/01/03 08:59:52;;;;;;;1.25;1.15;;;10.80;78.00;;;10.41;63.81;94775.78;5110092;28;20682;-85
2022/01/03 09:02:19;;;;;;;1.23;1.10;;;10.80;77.70;;;10.51;63.69;94791.16;5093291;28;20629;-83
2022/01/03 09:04:46;;;;;;;1.50;1.20;;;10.90;77.50;;;10.55;63.15;94787.13;5101748;28;20221;-82
2022/01/03 09:07:14;;;;;;;2.30;1.17;;;11.10;77.10;;;10.56;62.67;94774.84;5093065;28;20263;-82
2022/01/03 09:09:41;;;;;;;1.92;1.30;;;11.00;76.70;;;10.56;63.41;94778.25;5076490;28;20213;-83
2022/01/03 09:12:09;;;;;;;1.55;1.10;;;11.10;77.10;;;10.63;63.01;94787.97;5093107;28;20198;-84
2022/01/03 09:14:37;;;;;;;1.17;1.10;;;11.10;76.90;;;10.63;62.72;94780.94;5109644;28;20225;-84
2022/01/03 09:17:04;;;;;;;2.00;1.15;;;11.20;76.70;;;10.62;62.84;94795.03;5092213;28;20282;-83
2022/01/03 09:19:32;;;;;;;1.08;1.00;;;11.10;76.80;;;10.63;62.98;94783.53;5092837;28;20214;-84
2022/01/03 09:30:15;;;;;;;2.30;1.30;;;11.20;76.70;;;10.77;63.44;94784.41;5108943;28;20206;-81
2022/01/03 09:32:42;;;;;;;3.50;1.30;;;11.20;77.00;;;10.86;63.49;94777.16;5072678;28;20202;-84
2022/01/03 09:35:09;;;;;;;2.67;1.13;;;11.30;77.20;;;11.05;63.93;94773.00;5090219;28;20260;-85
2022/01/03 09:37:37;;;;;;;1.67;1.10;;;11.30;77.40;;;11.11;63.36;94761.69;5090749;28;20209;-84
2022/01/03 09:40:06;;;;;;;1.38;1.27;;;11.40;77.70;;;11.29;63.38;94762.94;5100959;28;20221;-85
2022/01/03 09:42:34;;;;;;;2.40;1.23;;;11.50;77.70;;;11.53;63.54;94766.78;5078159;28;20216;-83
2022/01/03 09:45:08;;;;;;;2.97;1.10;;;11.60;77.80;;;11.70;62.98;94756.69;5081117;28;20210;-85
2022/01/03 09:47:43;;;;;;;1.85;1.10;;;11.70;77.50;;;11.79;61.94;94757.28;5071750;28;20209;-82
2022/01/03 09:50:20;;;;;;;3.15;1.30;;;11.90;77.60;;;11.92;61.92;94767.81;5089553;28;20225;-85
2022/01/03 09:52:49;;;;;;;2.13;1.30;;;12.00;77.10;;;12.01;62.04;94764.00;5074981;28;20213;-86
2022/01/03 09:55:19;;;;;;;1.88;1.20;;;12.10;77.10;;;12.05;62.33;94767.03;5058115;28;20214;-86
2022/01/03 09:57:48;;;;;;;1.95;1.23;;;12.20;77.00;;;12.08;62.19;94760.53;5078919;28;20214;-85
2022/01/03 10:00:22;;;;;;;2.28;1.33;;;12.30;76.90;;;12.07;62.18;94756.28;5088413;28;20247;-86
2022/01/03 10:02:54;;;;;;;4.30;1.27;;;12.30;76.30;;;12.05;62.04;94751.25;5090362;28;20620;-86
2022/01/03 10:05:23;;;;;;;2.05;1.27;;;12.40;76.30;;;12.03;61.34;94747.22;5080721;28;20710;-85
2022/01/03 10:07:51;;;;;;;2.30;1.30;;;12.40;76.30;;;11.98;61.88;94751.25;5075138;28;20213;-85
2022/01/03 10:10:18;;;;;;;2.63;1.33;;;12.40;76.30;;;11.99;61.62;94750.22;5056994;28;20214;-86
2022/01/03 10:12:45;;;;;;;2.70;1.40;;;12.50;76.40;;;11.94;61.81;94752.66;5073671;28;20271;-86
2022/01/03 10:15:13;;;;;;;4.60;1.52;;;12.40;76.30;;;11.94;61.27;94742.13;5078136;28;20302;-84
2022/01/03 10:17:42;;;;;;;2.83;1.60;;;12.40;76.30;;;11.94;61.90;94755.28;5093671;28;20251;-85
2022/01/03 10:20:14;;;;;;;2.10;1.35;;;12.40;76.30;;;11.96;61.92;94750.66;5075765;28;20214;-84
2022/01/03 10:22:42;;;;;;;2.13;1.30;;;12.40;76.30;;;11.92;61.33;94730.22;5066207;28;20666;-86
2022/01/03 10:25:23;;;;;;;2.65;1.35;;;12.40;76.20;;;12.00;61.25;94743.97;5093168;28;20256;-84
2022/01/03 10:28:04;;;;;;;1.88;1.30;;;12.50;76.00;;;12.00;61.48;94740.53;5069610;28;20198;-85
2022/01/03 10:30:41;;;;;;;2.33;1.60;;;12.40;75.90;;;12.05;61.52;94743.38;5086981;28;20248;-85
2022/01/03 10:33:14;;;;;;;3.05;1.50;;;12.50;76.20;;;12.07;61.55;94733.47;5082933;28;20263;-85
2022/01/03 10:35:58;;;;;;;3.60;1.52;;;12.60;76.40;;;12.09;61.43;94744.56;5059232;28;20891;-85
2022/01/03 10:38:36;;;;;;;3.95;1.60;;;12.50;75.80;;;12.08;60.56;94740.31;5079793;28;20236;-84
2022/01/03 10:41:20;;;;;;;2.63;1.52;;;12.50;75.30;;;12.05;61.42;94735.47;5056684;28;20226;-85
2022/01/03 10:44:06;;;;;;;2.88;1.55;;;12.50;75.70;;;12.02;61.30;94720.09;5074028;28;20205;-85
2022/01/03 10:46:35;;;;;;;3.72;1.70;;;12.50;75.80;;;12.03;61.18;94734.06;5063860;28;20870;-85
2022/01/03 10:49:18;;;;;;;2.58;1.25;;;12.60;75.90;;;11.99;61.00;94723.16;5076374;28;20663;-86
2022/01/03 10:51:48;;;;;;;1.77;1.13;;;12.50;75.30;;;12.03;60.47;94736.69;5090788;28;20440;-84
2022/01/03 10:54:18;;;;;;;3.97;2.10;;;12.50;75.30;;;12.00;60.34;94730.03;5073486;28;20222;-86